Solberg-Hunterdon (N51)
Readington, NJ
Field Elevation: 195
Lat: 40°34.98N  Long: 74°44.19W
CTAF/Unicom Freq: 122.8000
   
     For Weather-by-Phone, call 908 534 4979
Weather Advisories
2020-01-25   14:55 Z
Altimeter 29.95" Hg
Wind 090° @ 13 KT
Gusts 24 KT
Visibility 10 SM
Ceiling OVC004
Temperature 4° C (39° F)
Dewpoint 4° C (39° F)
Relative Humidity 97%
Density Altitude --
Condensation Altitude --
Wind Chill: -1° C (30° F)
Wind and Runways
Indicated Runway = 13
Headwind = 10 kt
Crosswind = 8 kt
History
 
 
 
More Info
All DigiWx sites map
NOAA Forecast
 
Airport IQ 5010
(4N1) Greenwood Lake, NJ
(N40) Sky Manor, NJ
 
about DigiWx
 
FAA Disclaimer: The data displayed is for advisory purposes only and is not to be used for flight planning or operations. For official data, please call 908 534 4979 to hear the current automated AWOS voice message.
  METAR N51 251455Z AUTO 09013G24KT 10 SM OVC004 04/04 A2995